Time;durP1;ratioP1;P1;durP2;ratioP2;P2;SDS_P1;SDS_P2;PMS_P1;PMS_P2;Temp;Humidity;BMP_temperature;BMP_pressure;BME280_temperature;BME280_humidity;BME280_pressure;Samples;Min_cycle;Max_cycle;Signal;HPM_P1;HPM_P2
2022/07/22 00:01:06;;;;;;;17.35;11.75;;;;;;;;;;5073675;28;20518;-55
2022/07/22 00:03:35;;;;;;;17.58;11.90;;;;;;;;;;5113662;28;20141;-57
2022/07/22 00:06:18;;;;;;;17.02;12.05;;;;;;;;;;5114568;28;20086;-57
2022/07/22 00:08:48;;;;;;;12.88;10.90;;;;;;;;;;5113270;28;20130;-56
2022/07/22 00:11:18;;;;;;;20.23;12.07;;;;;;;;;;5113142;28;20054;-56
2022/07/22 00:13:48;;;;;;;14.50;11.70;;;;;;;;;;5091134;28;20063;-56
2022/07/22 00:16:18;;;;;;;17.77;11.52;;;;;;;;;;5073783;28;20048;-55
2022/07/22 00:18:48;;;;;;;16.73;11.38;;;;;;;;;;5073285;28;20067;-56
2022/07/22 00:21:16;;;;;;;16.80;11.95;;;;;;;;;;5089601;28;20054;-57
2022/07/22 00:23:46;;;;;;;16.90;11.23;;;;;;;;;;5093954;28;20048;-57
2022/07/22 00:26:14;;;;;;;19.27;12.02;;;;;;;;;;5093857;28;20067;-56
2022/07/22 00:28:42;;;;;;;18.65;11.98;;;;;;;;;;5093368;28;20160;-56
2022/07/22 00:31:18;;;;;;;13.02;11.43;;;;;;;;;;5093882;28;20055;-57
2022/07/22 00:33:45;;;;;;;13.88;9.98;;;;;;;;;;5093709;28;20475;-56
2022/07/22 00:36:15;;;;;;;18.08;11.77;;;;;;;;;;5094167;28;20071;-57
2022/07/22 00:38:49;;;;;;;12.32;10.75;;;;;;;;;;5104360;28;20058;-57
2022/07/22 00:41:17;;;;;;;14.25;10.75;;;;;;;;;;5114197;28;20105;-55
2022/07/22 00:43:55;;;;;;;13.60;10.95;;;;;;;;;;5075077;28;20049;-57
2022/07/22 00:46:26;;;;;;;13.95;10.13;;;;;;;;;;5073234;28;20385;-57
2022/07/22 00:48:55;;;;;;;16.17;11.82;;;;;;;;;;5086468;28;20121;-57
2022/07/22 00:51:32;;;;;;;15.45;11.05;;;;;;;;;;5093175;28;20400;-57
2022/07/22 00:54:07;;;;;;;13.98;10.70;;;;;;;;;;5093499;28;20051;-57
2022/07/22 00:56:36;;;;;;;;;;;;;;;;;;5094036;28;20048;-56
2022/07/22 00:59:07;;;;;;;16.67;11.35;;;;;;;;;;5093450;28;19924;-57
2022/07/22 01:01:34;;;;;;;18.92;12.07;;;;;;;;;;5093568;28;20134;-58
2022/07/22 01:04:04;;;;;;;16.10;12.10;;;;;;;;;;5093390;28;20064;-59
2022/07/22 01:06:32;;;;;;;16.20;11.95;;;;;;;;;;5093564;28;20110;-59
2022/07/22 01:09:02;;;;;;;16.77;12.75;;;;;;;;;;5093118;28;20054;-59
2022/07/22 01:11:32;;;;;;;17.30;12.70;;;;;;;;;;5093852;28;20048;-59
2022/07/22 01:14:01;;;;;;;19.73;13.18;;;;;;;;;;5093381;28;20048;-59
2022/07/22 01:16:29;;;;;;;19.08;13.38;;;;;;;;;;5092855;28;20059;-59
2022/07/22 01:18:59;;;;;;;17.42;12.73;;;;;;;;;;5092739;28;20048;-58
2022/07/22 01:21:29;;;;;;;20.92;12.90;;;;;;;;;;5093038;28;20048;-58
2022/07/22 01:23:58;;;;;;;19.40;12.95;;;;;;;;;;5092936;28;20062;-58
2022/07/22 01:26:29;;;;;;;21.77;13.23;;;;;;;;;;5095649;28;20066;-58
2022/07/22 01:29:00;;;;;;;18.42;12.77;;;;;;;;;;5096632;28;20063;-58
2022/07/22 01:31:30;;;;;;;19.17;12.52;;;;;;;;;;5097142;28;20056;-58
2022/07/22 01:34:00;;;;;;;16.88;12.65;;;;;;;;;;5096856;28;20055;-58
2022/07/22 01:36:29;;;;;;;15.80;12.60;;;;;;;;;;5096991;28;20137;-59
2022/07/22 01:38:59;;;;;;;19.42;12.73;;;;;;;;;;5109596;28;20448;-59
2022/07/22 01:41:27;;;;;;;17.20;12.70;;;;;;;;;;5116609;28;20051;-59
2022/07/22 01:43:58;;;;;;;16.05;12.48;;;;;;;;;;5076479;28;20080;-59
2022/07/22 01:46:28;;;;;;;16.60;12.50;;;;;;;;;;5076654;28;20053;-59
2022/07/22 01:48:57;;;;;;;15.10;11.90;;;;;;;;;;5089437;28;20079;-59
2022/07/22 01:51:26;;;;;;;17.30;11.57;;;;;;;;;;5091882;28;20155;-59
2022/07/22 01:54:01;;;;;;;16.88;11.63;;;;;;;;;;5076382;28;20057;-59
2022/07/22 01:56:28;;;;;;;18.13;10.85;;;;;;;;;;5076448;28;20138;-58
2022/07/22 01:58:56;;;;;;;14.02;11.20;;;;;;;;;;5074024;28;20054;-58
2022/07/22 02:01:27;;;;;;;17.50;11.55;;;;;;;;;;5076012;28;20469;-58
2022/07/22 02:03:53;;;;;;;15.23;11.32;;;;;;;;;;5075950;28;20053;-58
2022/07/22 02:06:21;;;;;;;18.92;11.73;;;;;;;;;;5076425;28;20056;-59
2022/07/22 02:08:49;;;;;;;17.77;11.95;;;;;;;;;;5075747;28;20052;-58
2022/07/22 02:11:23;;;;;;;16.70;11.63;;;;;;;;;;5076120;28;20056;-58
2022/07/22 02:13:51;;;;;;;15.70;11.75;;;;;;;;;;5092749;28;20076;-58
2022/07/22 02:16:18;;;;;;;19.15;12.25;;;;;;;;;;5096019;28;20055;-58
2022/07/22 02:18:46;;;;;;;18.35;12.13;;;;;;;;;;5095537;28;20044;-59
2022/07/22 02:21:15;;;;;;;17.17;11.55;;;;;;;;;;5095570;28;20048;-58
2022/07/22 02:23:42;;;;;;;15.52;12.07;;;;;;;;;;5095988;28;20059;-58
2022/07/22 02:26:08;;;;;;;18.30;12.25;;;;;;;;;;5095314;28;20048;-58
2022/07/22 02:28:41;;;;;;;18.17;12.10;;;;;;;;;;5095283;28;20357;-58
2022/07/22 02:31:09;;;;;;;18.63;12.38;;;;;;;;;;5095694;28;20051;-58
2022/07/22 02:33:37;;;;;;;22.83;12.50;;;;;;;;;;5095527;28;20141;-57
2022/07/22 02:36:14;;;;;;;18.23;12.38;;;;;;;;;;5094592;28;20469;-58
2022/07/22 02:38:42;;;;;;;16.38;11.48;;;;;;;;;;5106407;28;20079;-57
2022/07/22 02:41:13;;;;;;;17.27;11.65;;;;;;;;;;5115383;28;20743;-59
2022/07/22 02:43:42;;;;;;;18.42;12.52;;;;;;;;;;5077882;28;20049;-59
2022/07/22 02:46:09;;;;;;;18.55;12.18;;;;;;;;;;5074622;28;20393;-59
2022/07/22 02:48:37;;;;;;;18.27;12.40;;;;;;;;;;5085848;28;20078;-59
2022/07/22 02:51:06;;;;;;;13.85;11.43;;;;;;;;;;5095472;28;20059;-58
2022/07/22 02:53:36;;;;;;;16.67;11.90;;;;;;;;;;5095573;28;20079;-58
2022/07/22 02:56:07;;;;;;;18.73;11.75;;;;;;;;;;5095196;28;20062;-58
2022/07/22 02:58:34;;;;;;;20.77;11.55;;;;;;;;;;5095553;28;20093;-58
2022/07/22 03:01:17;;;;;;;17.98;12.13;;;;;;;;;;5095221;28;20058;-58
2022/07/22 03:03:48;;;;;;;18.40;11.35;;;;;;;;;;5094960;28;20090;-58
2022/07/22 03:06:15;;;;;;;17.00;10.93;;;;;;;;;;5095516;28;20059;-58
2022/07/22 03:08:53;;;;;;;16.30;11.60;;;;;;;;;;5094646;28;20482;-58
2022/07/22 03:11:19;;;;;;;21.20;12.07;;;;;;;;;;5095174;28;20048;-58
2022/07/22 03:13:50;;;;;;;20.88;12.18;;;;;;;;;;5094971;28;20050;-58
2022/07/22 03:16:20;;;;;;;16.30;11.60;;;;;;;;;;5088520;28;20060;-58
2022/07/22 03:18:48;;;;;;;19.02;11.60;;;;;;;;;;5074583;28;20476;-59
2022/07/22 03:23:58;;;;;;;19.05;11.80;;;;;;;;;;5074229;28;20060;-58
2022/07/22 03:26:26;;;;;;;16.75;10.80;;;;;;;;;;5074557;28;20056;-59
2022/07/22 03:28:54;;;;;;;20.90;11.82;;;;;;;;;;5073979;28;20465;-59
2022/07/22 03:31:24;;;;;;;19.35;11.27;;;;;;;;;;5074717;28;20052;-59
2022/07/22 03:33:51;;;;;;;18.38;11.38;;;;;;;;;;5074685;28;20059;-58
2022/07/22 03:36:17;;;;;;;33.65;12.88;;;;;;;;;;5074337;28;20064;-56
2022/07/22 03:38:45;;;;;;;18.38;11.60;;;;;;;;;;5096699;28;20456;-58
2022/07/22 03:41:11;;;;;;;15.50;11.40;;;;;;;;;;5114712;28;20526;-58
2022/07/22 03:43:38;;;;;;;21.30;11.38;;;;;;;;;;5076648;28;20339;-58
2022/07/22 03:46:07;;;;;;;21.30;12.10;;;;;;;;;;5074295;28;20052;-57
2022/07/22 03:48:43;;;;;;;19.25;11.20;;;;;;;;;;5083786;28;20364;-57
2022/07/22 03:51:12;;;;;;;21.05;11.73;;;;;;;;;;5094532;28;20047;-57
2022/07/22 03:53:38;;;;;;;17.80;11.55;;;;;;;;;;5094648;28;20052;-57
2022/07/22 03:56:11;;;;;;;16.73;10.63;;;;;;;;;;5094364;28;20059;-59
2022/07/22 03:58:39;;;;;;;17.40;11.90;;;;;;;;;;5094577;28;20047;-59
2022/07/22 04:01:08;;;;;;;16.38;10.98;;;;;;;;;;5094180;28;20079;-58
2022/07/22 04:03:37;;;;;;;16.35;10.93;;;;;;;;;;5093878;28;20059;-57
2022/07/22 04:06:13;;;;;;;15.10;11.25;;;;;;;;;;5093660;28;20058;-57
2022/07/22 04:08:42;;;;;;;16.90;11.77;;;;;;;;;;5094194;28;20055;-58
2022/07/22 04:11:12;;;;;;;15.45;11.60;;;;;;;;;;5093843;28;20392;-58
2022/07/22 04:13:40;;;;;;;15.90;11.73;;;;;;;;;;5094383;28;20059;-58
2022/07/22 04:16:08;;;;;;;30.55;13.00;;;;;;;;;;5088668;28;20541;-57
2022/07/22 04:18:36;;;;;;;31.17;12.63;;;;;;;;;;5073559;28;20055;-59
2022/07/22 04:21:04;;;;;;;18.02;11.55;;;;;;;;;;5073805;28;20056;-59
2022/07/22 04:23:30;;;;;;;17.00;11.13;;;;;;;;;;5073840;28;20063;-59
2022/07/22 04:26:10;;;;;;;17.02;11.48;;;;;;;;;;5072550;28;20412;-59
2022/07/22 04:28:39;;;;;;;20.48;11.10;;;;;;;;;;5073356;28;20057;-59
2022/07/22 04:31:08;;;;;;;18.35;12.02;;;;;;;;;;5073382;28;20438;-59
2022/07/22 04:33:49;;;;;;;18.50;11.15;;;;;;;;;;5073345;28;20075;-59
2022/07/22 04:36:17;;;;;;;68.57;14.25;;;;;;;;;;5073560;28;20049;-59
2022/07/22 04:38:50;;;;;;;27.27;12.48;;;;;;;;;;5095519;28;20479;-59
2022/07/22 04:41:17;;;;;;;60.97;15.20;;;;;;;;;;5113903;28;20437;-59
2022/07/22 04:43:47;;;;;;;34.40;13.00;;;;;;;;;;5074958;28;20450;-59
2022/07/22 04:46:16;;;;;;;19.63;11.77;;;;;;;;;;5073498;28;20053;-57
2022/07/22 04:48:56;;;;;;;17.73;11.40;;;;;;;;;;5084610;28;20368;-57
2022/07/22 04:51:24;;;;;;;16.38;11.90;;;;;;;;;;5093245;28;20060;-58
2022/07/22 04:54:04;;;;;;;21.52;11.73;;;;;;;;;;5093220;28;20070;-58
2022/07/22 04:56:33;;;;;;;46.28;14.98;;;;;;;;;;5093668;28;20052;-58
2022/07/22 05:01:42;;;;;;;58.28;13.73;;;;;;;;;;5097283;28;20056;-57
2022/07/22 05:04:21;;;;;;;29.98;12.05;;;;;;;;;;5097817;28;20048;-60
2022/07/22 05:06:48;;;;;;;30.83;12.45;;;;;;;;;;5097833;28;20118;-60
2022/07/22 05:11:58;;;;;;;26.08;11.57;;;;;;;;;;5097338;28;20062;-58
2022/07/22 05:14:28;;;;;;;22.27;11.38;;;;;;;;;;5097239;28;20491;-58
2022/07/22 05:19:39;;;;;;;259.98;30.40;;;;;;;;;;5076508;28;20055;-60
2022/07/22 05:22:11;;;;;;;31.45;12.93;;;;;;;;;;5076982;28;20053;-60
2022/07/22 05:24:39;;;;;;;27.05;12.02;;;;;;;;;;5076795;28;20352;-57
2022/07/22 05:27:05;;;;;;;15.98;10.90;;;;;;;;;;5076452;28;20366;-58
2022/07/22 05:29:34;;;;;;;15.10;11.07;;;;;;;;;;5076717;28;20549;-58
2022/07/22 05:32:02;;;;;;;19.20;11.02;;;;;;;;;;5076973;28;20166;-60
2022/07/22 05:34:30;;;;;;;20.25;11.80;;;;;;;;;;5076365;28;20064;-60
2022/07/22 05:37:00;;;;;;;16.83;11.80;;;;;;;;;;5076458;28;20567;-57
2022/07/22 05:39:30;;;;;;;24.67;12.13;;;;;;;;;;5111203;28;20054;-58
2022/07/22 05:41:57;;;;;;;18.48;10.90;;;;;;;;;;5108208;28;20044;-59
2022/07/22 05:44:27;;;;;;;19.98;10.85;;;;;;;;;;5076534;28;20473;-59
2022/07/22 05:46:57;;;;;;;20.00;11.23;;;;;;;;;;5076602;28;20053;-59
2022/07/22 05:49:28;;;;;;;31.65;12.23;;;;;;;;;;5093659;28;20044;-59
2022/07/22 05:52:00;;;;;;;29.02;12.90;;;;;;;;;;5096830;28;20138;-58
2022/07/22 05:54:37;;;;;;;23.13;12.70;;;;;;;;;;5096927;28;20169;-59
2022/07/22 05:57:09;;;;;;;19.80;12.95;;;;;;;;;;5096019;28;20797;-59
2022/07/22 05:59:40;;;;;;;21.20;12.57;;;;;;;;;;5089160;28;20126;-57
2022/07/22 06:02:07;;;;;;;18.45;12.20;;;;;;;;;;5094860;28;20043;-59
2022/07/22 06:04:35;;;;;;;20.85;12.38;;;;;;;;;;5090591;28;20044;-59
2022/07/22 06:07:06;;;;;;;25.52;13.50;;;;;;;;;;5095900;28;20055;-60
2022/07/22 06:09:40;;;;;;;18.90;12.93;;;;;;;;;;5095520;28;20052;-59
2022/07/22 06:12:09;;;;;;;20.00;13.02;;;;;;;;;;5106487;28;20052;-59
2022/07/22 06:14:46;;;;;;;23.60;12.90;;;;;;;;;;5091985;28;20074;-58
2022/07/22 06:17:13;;;;;;;21.50;13.15;;;;;;;;;;5101891;28;20062;-58
2022/07/22 06:19:41;;;;;;;25.30;14.88;;;;;;;;;;5095806;28;20044;-59
2022/07/22 06:22:11;;;;;;;24.27;14.20;;;;;;;;;;5112079;28;20069;-58
2022/07/22 06:24:44;;;;;;;21.25;13.65;;;;;;;;;;5116299;28;20058;-58
2022/07/22 06:27:12;;;;;;;24.17;13.80;;;;;;;;;;5111629;28;20066;-56
2022/07/22 06:29:43;;;;;;;18.95;13.60;;;;;;;;;;5095608;28;20062;-59
2022/07/22 06:32:11;;;;;;;24.60;14.63;;;;;;;;;;5111911;28;20109;-58
2022/07/22 06:34:38;;;;;;;19.10;13.80;;;;;;;;;;5095788;28;20083;-54
2022/07/22 06:37:05;;;;;;;21.90;13.52;;;;;;;;;;5096268;28;20105;-59
2022/07/22 06:39:35;;;;;;;19.77;13.82;;;;;;;;;;5096340;28;20044;-55
2022/07/22 06:42:03;;;;;;;21.33;13.52;;;;;;;;;;5105904;28;20040;-58
2022/07/22 06:44:29;;;;;;;22.05;15.02;;;;;;;;;;5091970;28;20055;-57
2022/07/22 06:46:58;;;;;;;21.88;14.60;;;;;;;;;;5095920;28;20062;-56
2022/07/22 06:49:26;;;;;;;21.75;13.90;;;;;;;;;;5102639;28;20048;-58
2022/07/22 06:51:56;;;;;;;23.60;14.55;;;;;;;;;;5116459;28;20062;-56
2022/07/22 06:57:06;;;;;;;25.73;15.18;;;;;;;;;;5077952;28;20039;-57
2022/07/22 06:59:36;;;;;;;27.98;15.10;;;;;;;;;;5100728;28;20043;-57
2022/07/22 07:02:02;;;;;;;24.52;15.43;;;;;;;;;;5115284;28;20059;-57
2022/07/22 07:04:33;;;;;;;24.70;16.30;;;;;;;;;;5115140;27;20058;-57
2022/07/22 07:07:01;;;;;;;26.35;15.60;;;;;;;;;;5100297;28;20051;-57
2022/07/22 07:09:31;;;;;;;24.13;15.63;;;;;;;;;;5114379;28;20050;-57
2022/07/22 07:11:59;;;;;;;27.13;15.15;;;;;;;;;;5108724;28;20063;-56
2022/07/22 07:14:41;;;;;;;28.10;16.00;;;;;;;;;;5081553;28;20052;-53
2022/07/22 07:17:10;;;;;;;32.20;16.80;;;;;;;;;;5077303;28;20040;-56
2022/07/22 07:19:38;;;;;;;22.60;15.55;;;;;;;;;;5095547;28;20536;-58
2022/07/22 07:22:06;;;;;;;23.67;14.88;;;;;;;;;;5086126;28;20052;-58
2022/07/22 07:24:44;;;;;;;27.65;14.18;;;;;;;;;;5083834;28;20137;-57
2022/07/22 07:27:12;;;;;;;24.35;15.63;;;;;;;;;;5080271;28;20052;-58
2022/07/22 07:29:45;;;;;;;25.25;15.07;;;;;;;;;;5095532;28;20051;-58
2022/07/22 07:32:14;;;;;;;21.88;14.30;;;;;;;;;;5094562;28;20498;-54
2022/07/22 07:34:44;;;;;;;20.40;13.57;;;;;;;;;;5099421;28;20048;-54
2022/07/22 07:37:10;;;;;;;20.88;14.57;;;;;;;;;;5078090;28;20075;-57
2022/07/22 07:39:38;;;;;;;21.20;14.88;;;;;;;;;;5099054;28;20047;-56
2022/07/22 07:42:09;;;;;;;20.60;15.18;;;;;;;;;;5092893;28;20123;-57
2022/07/22 07:44:39;;;;;;;18.13;13.98;;;;;;;;;;5077549;28;20374;-59
2022/07/22 07:47:13;;;;;;;21.08;14.75;;;;;;;;;;5077606;28;20051;-58
2022/07/22 07:49:41;;;;;;;20.55;14.57;;;;;;;;;;5114341;28;20528;-58
2022/07/22 07:52:12;;;;;;;20.23;15.55;;;;;;;;;;5102761;28;20052;-55
2022/07/22 07:54:39;;;;;;;22.27;14.95;;;;;;;;;;5094134;28;20069;-58
2022/07/22 07:57:10;;;;;;;21.33;15.45;;;;;;;;;;5096332;28;20055;-58
2022/07/22 07:59:37;;;;;;;18.90;14.10;;;;;;;;;;5101393;28;20068;-57
2022/07/22 08:02:06;;;;;;;22.17;14.77;;;;;;;;;;5094630;28;20051;-56
2022/07/22 08:04:38;;;;;;;21.20;15.50;;;;;;;;;;5094196;28;20143;-57
2022/07/22 08:07:08;;;;;;;20.38;15.98;;;;;;;;;;5095017;28;20054;-56
2022/07/22 08:09:45;;;;;;;19.58;15.90;;;;;;;;;;5097387;28;20087;-57
2022/07/22 08:12:15;;;;;;;21.80;16.58;;;;;;;;;;5085579;28;20388;-58
2022/07/22 08:14:45;;;;;;;21.25;15.20;;;;;;;;;;5090675;28;20048;-58
2022/07/22 08:17:13;;;;;;;20.30;15.23;;;;;;;;;;5100469;28;20052;-58
2022/07/22 08:19:45;;;;;;;19.98;15.70;;;;;;;;;;5093099;28;20063;-54
2022/07/22 08:22:14;;;;;;;23.05;15.55;;;;;;;;;;5090457;28;20436;-57
2022/07/22 08:24:45;;;;;;;18.83;14.40;;;;;;;;;;5074427;28;20055;-55
2022/07/22 08:27:15;;;;;;;20.50;14.85;;;;;;;;;;5088090;28;20047;-56
2022/07/22 08:29:43;;;;;;;17.40;14.02;;;;;;;;;;5082262;28;20052;-57
2022/07/22 08:32:10;;;;;;;22.02;14.60;;;;;;;;;;5092009;28;20113;-57
2022/07/22 08:34:36;;;;;;;19.90;15.15;;;;;;;;;;5092907;28;20052;-58
2022/07/22 08:37:11;;;;;;;23.70;15.48;;;;;;;;;;5101084;28;20058;-56
2022/07/22 08:39:40;;;;;;;22.42;15.23;;;;;;;;;;5104987;28;20060;-53
2022/07/22 08:42:08;;;;;;;19.40;15.25;;;;;;;;;;5093254;28;20134;-58
2022/07/22 08:44:38;;;;;;;21.30;15.57;;;;;;;;;;5080897;28;20057;-57
2022/07/22 08:47:08;;;;;;;20.05;14.55;;;;;;;;;;5112341;28;20047;-57
2022/07/22 08:49:38;;;;;;;23.40;14.68;;;;;;;;;;5113105;28;20043;-57
2022/07/22 08:52:06;;;;;;;21.17;14.60;;;;;;;;;;5115041;28;20518;-57
2022/07/22 08:54:34;;;;;;;20.75;14.07;;;;;;;;;;5086205;28;20053;-57
2022/07/22 08:57:04;;;;;;;20.08;12.85;;;;;;;;;;5096580;28;20059;-58
2022/07/22 08:59:34;;;;;;;17.45;12.25;;;;;;;;;;5092573;28;20083;-58
2022/07/22 09:02:08;;;;;;;19.90;13.50;;;;;;;;;;5100410;28;20475;-58
2022/07/22 09:04:53;;;;;;;15.77;11.90;;;;;;;;;;5091711;28;20084;-57
2022/07/22 09:07:42;;;;;;;19.27;13.13;;;;;;;;;;5106193;28;20123;-57
2022/07/22 09:10:11;;;;;;;14.65;11.30;;;;;;;;;;5099829;28;20051;-56
2022/07/22 09:12:54;;;;;;;18.20;11.75;;;;;;;;;;5113111;28;20074;-56
2022/07/22 09:15:32;;;;;;;18.30;11.25;;;;;;;;;;5109564;28;20055;-56
2022/07/22 09:18:02;;;;;;;17.10;10.32;;;;;;;;;;5098190;28;20168;-55
2022/07/22 09:20:31;;;;;;;14.18;11.18;;;;;;;;;;5087787;28;20127;-56
2022/07/22 09:22:59;;;;;;;16.85;11.15;;;;;;;;;;5077380;28;20067;-56
2022/07/22 09:25:28;;;;;;;15.52;10.32;;;;;;;;;;5103603;28;20402;-54
2022/07/22 09:27:58;;;;;;;15.43;10.38;;;;;;;;;;5113139;28;20143;-56
2022/07/22 09:30:34;;;;;;;16.13;10.80;;;;;;;;;;5105350;28;20045;-58
2022/07/22 09:33:15;;;;;;;16.33;10.05;;;;;;;;;;5092854;28;20140;-55
2022/07/22 09:35:45;;;;;;;13.32;9.63;;;;;;;;;;5086285;28;20121;-58
2022/07/22 09:38:15;;;;;;;18.17;10.80;;;;;;;;;;5085730;28;20056;-57
2022/07/22 09:40:44;;;;;;;16.00;10.77;;;;;;;;;;5092525;28;20040;-55
2022/07/22 09:43:15;;;;;;;13.10;8.85;;;;;;;;;;5094865;28;20150;-55
2022/07/22 09:45:47;;;;;;;14.40;8.70;;;;;;;;;;5110990;28;20055;-55
2022/07/22 09:48:15;;;;;;;13.25;8.45;;;;;;;;;;5095907;28;20127;-57
2022/07/22 09:50:45;;;;;;;13.27;9.00;;;;;;;;;;5096499;28;20040;-56
2022/07/22 09:53:28;;;;;;;12.65;8.88;;;;;;;;;;5101188;28;20126;-57
2022/07/22 09:55:58;;;;;;;11.63;9.00;;;;;;;;;;5116684;28;20572;-54
2022/07/22 09:58:27;;;;;;;24.35;10.05;;;;;;;;;;5116831;28;20051;-56
2022/07/22 10:00:58;;;;;;;12.23;9.40;;;;;;;;;;5116789;28;20092;-58
2022/07/22 10:03:28;;;;;;;15.23;10.07;;;;;;;;;;5111690;28;20047;-54
2022/07/22 10:05:57;;;;;;;17.15;11.65;;;;;;;;;;5086946;28;20052;-56
2022/07/22 10:08:25;;;;;;;12.73;10.05;;;;;;;;;;5078171;28;20534;-58
2022/07/22 10:10:55;;;;;;;19.83;11.85;;;;;;;;;;5076433;28;20054;-57
2022/07/22 10:13:23;;;;;;;13.88;10.13;;;;;;;;;;5074849;28;20054;-58
2022/07/22 10:15:51;;;;;;;16.95;10.48;;;;;;;;;;5076286;28;20052;-59
2022/07/22 10:18:21;;;;;;;17.88;11.07;;;;;;;;;;5084752;28;20441;-58
2022/07/22 10:20:49;;;;;;;14.18;10.90;;;;;;;;;;5096142;28;20063;-58
2022/07/22 10:23:17;;;;;;;15.93;10.45;;;;;;;;;;5095961;28;20062;-58
2022/07/22 10:26:06;;;;;;;14.57;10.40;;;;;;;;;;5086080;28;20467;-58
2022/07/22 10:28:37;;;;;;;24.30;11.80;;;;;;;;;;5094579;28;20064;-58
2022/07/22 10:31:28;;;;;;;15.82;11.15;;;;;;;;;;5086203;28;20389;-58
2022/07/22 10:33:59;;;;;;;18.00;12.10;;;;;;;;;;5072524;28;20087;-58
2022/07/22 10:36:37;;;;;;;17.15;11.95;;;;;;;;;;5075112;28;20437;-58
2022/07/22 10:39:07;;;;;;;16.25;11.40;;;;;;;;;;5075474;28;20059;-58
2022/07/22 10:41:38;;;;;;;14.90;11.18;;;;;;;;;;5076726;28;20045;-57
2022/07/22 10:44:06;;;;;;;17.65;11.75;;;;;;;;;;5088579;28;20068;-57
2022/07/22 10:46:58;;;;;;;19.67;11.55;;;;;;;;;;5074362;28;20148;-57
2022/07/22 10:49:27;;;;;;;18.38;11.20;;;;;;;;;;5084421;28;20051;-57
2022/07/22 10:52:16;;;;;;;16.17;11.25;;;;;;;;;;5095365;28;20059;-57
2022/07/22 10:55:02;;;;;;;12.70;10.00;;;;;;;;;;5095250;28;20445;-57
2022/07/22 10:57:41;;;;;;;12.75;9.43;;;;;;;;;;5095280;28;20056;-58
2022/07/22 11:00:11;;;;;;;14.35;10.05;;;;;;;;;;5095237;28;20048;-58
2022/07/22 11:02:39;;;;;;;15.05;9.85;;;;;;;;;;5094927;28;20135;-58
2022/07/22 11:05:06;;;;;;;16.08;10.68;;;;;;;;;;5095306;28;20059;-58
2022/07/22 11:07:34;;;;;;;13.15;9.88;;;;;;;;;;5094901;28;20055;-58
2022/07/22 11:10:12;;;;;;;11.52;8.98;;;;;;;;;;5095049;28;20157;-56
2022/07/22 11:12:47;;;;;;;11.63;8.68;;;;;;;;;;5095170;28;20052;-57
2022/07/22 11:15:14;;;;;;;12.60;8.68;;;;;;;;;;5095095;28;20044;-54
2022/07/22 11:17:44;;;;;;;12.52;7.95;;;;;;;;;;5084523;28;20045;-57
2022/07/22 11:20:14;;;;;;;10.85;7.95;;;;;;;;;;5074632;28;20048;-57
2022/07/22 11:22:42;;;;;;;13.65;8.00;;;;;;;;;;5075795;28;20094;-56
2022/07/22 11:25:12;;;;;;;10.15;7.57;;;;;;;;;;5093860;28;20518;-56
2022/07/22 11:27:50;;;;;;;9.60;7.95;;;;;;;;;;5087589;28;20151;-56
2022/07/22 11:30:18;;;;;;;9.55;7.55;;;;;;;;;;5084011;28;20056;-56
2022/07/22 11:32:48;;;;;;;9.45;7.03;;;;;;;;;;5103572;28;20109;-57
2022/07/22 11:35:17;;;;;;;10.02;8.27;;;;;;;;;;5102574;28;20048;-57
2022/07/22 11:38:01;;;;;;;13.63;7.95;;;;;;;;;;5102248;28;20054;-57
2022/07/22 11:40:35;;;;;;;11.35;7.72;;;;;;;;;;5086910;28;20058;-57
2022/07/22 11:43:18;;;;;;;11.27;8.10;;;;;;;;;;5090212;28;20051;-58
2022/07/22 11:45:56;;;;;;;11.73;8.07;;;;;;;;;;5090415;28;20052;-58
2022/07/22 11:48:27;;;;;;;10.35;7.95;;;;;;;;;;5089195;28;20055;-57
2022/07/22 11:50:59;;;;;;;14.63;7.90;;;;;;;;;;5111638;28;20043;-57
2022/07/22 11:53:26;;;;;;;14.48;8.07;;;;;;;;;;5106925;28;20049;-56
2022/07/22 11:55:57;;;;;;;10.50;8.00;;;;;;;;;;5101791;28;20378;-56
2022/07/22 11:58:38;;;;;;;14.10;8.35;;;;;;;;;;5099725;28;20065;-56
2022/07/22 12:01:09;;;;;;;13.02;8.15;;;;;;;;;;5108891;28;20054;-55
2022/07/22 12:03:41;;;;;;;11.73;8.35;;;;;;;;;;5108489;28;20134;-56
2022/07/22 12:06:13;;;;;;;9.85;8.68;;;;;;;;;;5097615;28;20052;-57
2022/07/22 12:08:50;;;;;;;10.18;8.13;;;;;;;;;;5094160;28;20135;-58
2022/07/22 12:11:26;;;;;;;10.23;7.90;;;;;;;;;;5108827;28;20110;-57
2022/07/22 12:14:05;;;;;;;13.75;8.93;;;;;;;;;;5097441;28;20131;-58
2022/07/22 12:16:41;;;;;;;10.93;7.53;;;;;;;;;;5098717;28;20109;-58
2022/07/22 12:19:13;;;;;;;12.82;7.85;;;;;;;;;;5101475;28;20350;-58
2022/07/22 12:21:53;;;;;;;12.13;8.05;;;;;;;;;;5112237;28;20036;-57
2022/07/22 12:24:29;;;;;;;9.73;8.70;;;;;;;;;;5101216;28;20230;-57
2022/07/22 12:26:58;;;;;;;17.48;9.43;;;;;;;;;;5108871;28;20119;-57
2022/07/22 12:29:38;;;;;;;9.57;8.43;;;;;;;;;;5079901;28;20635;-57
2022/07/22 12:32:16;;;;;;;13.73;8.27;;;;;;;;;;5104812;28;20047;-57
2022/07/22 12:34:46;;;;;;;11.93;8.30;;;;;;;;;;5103646;28;20048;-57
2022/07/22 12:37:18;;;;;;;9.82;8.50;;;;;;;;;;5097402;28;20056;-57
2022/07/22 12:39:57;;;;;;;11.88;9.48;;;;;;;;;;5107429;28;20048;-57
2022/07/22 12:42:25;;;;;;;10.43;7.95;;;;;;;;;;5087968;28;20054;-57
2022/07/22 12:45:00;;;;;;;10.10;8.07;;;;;;;;;;5102798;28;20495;-56
2022/07/22 12:47:55;;;;;;;9.77;8.40;;;;;;;;;;5096295;28;20059;-57
2022/07/22 12:50:29;;;;;;;10.80;8.57;;;;;;;;;;5102267;28;20066;-56
2022/07/22 12:53:02;;;;;;;9.32;7.30;;;;;;;;;;5094769;28;20076;-56
2022/07/22 12:55:32;;;;;;;9.18;7.40;;;;;;;;;;5073003;28;20123;-56
2022/07/22 12:58:01;;;;;;;13.10;8.32;;;;;;;;;;5088652;28;20083;-57
2022/07/22 13:00:45;;;;;;;11.70;8.73;;;;;;;;;;5098779;28;20063;-58
2022/07/22 13:03:13;;;;;;;10.63;8.45;;;;;;;;;;5082703;28;20056;-58
2022/07/22 13:05:42;;;;;;;11.80;7.97;;;;;;;;;;5095167;28;20085;-58
2022/07/22 13:08:11;;;;;;;9.90;7.97;;;;;;;;;;5102672;28;20050;-58
2022/07/22 13:10:39;;;;;;;13.20;7.63;;;;;;;;;;5103083;28;20479;-58
2022/07/22 13:13:15;;;;;;;10.40;7.88;;;;;;;;;;5111487;28;20058;-56
2022/07/22 13:15:51;;;;;;;11.43;7.85;;;;;;;;;;5096443;28;20056;-57
2022/07/22 13:18:19;;;;;;;9.90;7.88;;;;;;;;;;5097541;28;20373;-57
2022/07/22 13:20:47;;;;;;;12.30;8.18;;;;;;;;;;5105514;28;20486;-57
2022/07/22 13:23:16;;;;;;;9.98;7.72;;;;;;;;;;5112464;28;20055;-56
2022/07/22 13:25:43;;;;;;;9.13;7.78;;;;;;;;;;5100598;28;20056;-57
2022/07/22 13:28:14;;;;;;;16.00;8.18;;;;;;;;;;5104671;28;20052;-57
2022/07/22 13:30:49;;;;;;;12.93;8.82;;;;;;;;;;5112493;28;20392;-57
2022/07/22 13:33:20;;;;;;;14.45;9.00;;;;;;;;;;5113297;28;20449;-57
2022/07/22 13:35:47;;;;;;;14.45;9.55;;;;;;;;;;5101992;28;20070;-55
2022/07/22 13:38:17;;;;;;;15.55;9.05;;;;;;;;;;5110848;28;20051;-57
2022/07/22 13:40:55;;;;;;;14.50;9.32;;;;;;;;;;5114850;28;20074;-57
2022/07/22 13:43:24;;;;;;;17.52;10.52;;;;;;;;;;5094099;28;20056;-57
2022/07/22 13:46:00;;;;;;;13.68;9.57;;;;;;;;;;5104830;28;20048;-57
2022/07/22 13:48:34;;;;;;;13.07;9.65;;;;;;;;;;5113181;28;20105;-55
2022/07/22 13:51:04;;;;;;;;;;;;;;;;;;5103825;28;20092;-57
2022/07/22 13:53:34;;;;;;;19.77;9.20;;;;;;;;;;5101530;28;20441;-57
2022/07/22 13:56:02;;;;;;;21.58;9.57;;;;;;;;;;5098327;28;20124;-56
2022/07/22 13:58:32;;;;;;;17.73;9.55;;;;;;;;;;5100470;28;20127;-56
2022/07/22 14:01:09;;;;;;;14.50;9.98;;;;;;;;;;5101874;28;20051;-56
2022/07/22 14:03:53;;;;;;;18.63;9.80;;;;;;;;;;5109547;28;20087;-56
2022/07/22 14:06:21;;;;;;;12.48;8.98;;;;;;;;;;5105459;28;20052;-53
2022/07/22 14:08:51;;;;;;;14.40;8.90;;;;;;;;;;5111006;28;20047;-56
2022/07/22 14:11:19;;;;;;;12.07;8.30;;;;;;;;;;5108013;28;20097;-54
2022/07/22 14:13:46;;;;;;;9.95;8.18;;;;;;;;;;5110435;28;20056;-56
2022/07/22 14:19:07;;;;;;;11.23;8.73;;;;;;;;;;5110401;28;20058;-52
2022/07/22 14:21:37;;;;;;;10.70;8.52;;;;;;;;;;5107865;28;20052;-56
2022/07/22 14:24:06;;;;;;;11.27;8.77;;;;;;;;;;5099449;28;20134;-55
2022/07/22 14:26:33;;;;;;;14.95;8.60;;;;;;;;;;5107995;28;20055;-54
2022/07/22 14:29:03;;;;;;;12.45;8.02;;;;;;;;;;5111204;27;20165;-53
2022/07/22 14:31:38;;;;;;;14.60;8.65;;;;;;;;;;5111164;28;20711;-56
2022/07/22 14:34:16;;;;;;;13.15;9.82;;;;;;;;;;5101706;28;20447;-55
2022/07/22 14:36:46;;;;;;;13.55;9.77;;;;;;;;;;5103717;27;20146;-55
2022/07/22 14:39:14;;;;;;;12.35;10.18;;;;;;;;;;5109629;28;20051;-56
2022/07/22 14:41:45;;;;;;;14.60;9.98;;;;;;;;;;5110413;28;20059;-56
2022/07/22 14:44:16;;;;;;;14.98;10.82;;;;;;;;;;5098867;28;20048;-53
2022/07/22 14:46:45;;;;;;;15.80;10.85;;;;;;;;;;5102681;28;20430;-56
2022/07/22 14:49:21;;;;;;;14.65;11.00;;;;;;;;;;5090177;28;20052;-56
2022/07/22 14:51:49;;;;;;;15.90;9.77;;;;;;;;;;5099036;28;20048;-56
2022/07/22 14:54:16;;;;;;;15.18;11.27;;;;;;;;;;5097425;28;20361;-56
2022/07/22 14:56:46;;;;;;;11.88;9.32;;;;;;;;;;5109821;28;20463;-55
2022/07/22 14:59:16;;;;;;;13.88;9.82;;;;;;;;;;5100895;28;20055;-54